Clipper Venus — LATU7 — position and weather

sailwx.info

Track history (hours):
 
Tides and Currents Weather Stations Pressure Air Temp Water Temp Dewpoint Dewpoint Depression Visibility Wind Speed Wind Dir Waves Ship Positions

Clipper Venus

Last reported at 2018-Feb-20 13:30 UTC. Time now 2018-Feb-20 13:54 UTC.
Position N 36°25' E 014°30'.

Length 199 m; draft 7.2 m.

Type: Ship (hazmat cat B). MMSI: 257665000.

Date/timePositionNaut miles runAvg speedWind from/ knotsBaromVisibWave heightAir tempDewpointWater temp
2018-Feb-20 13:30N 36°25' E 014°30'815.8
2018-Feb-20 13:00N 36°28' E 014°21'815.8
2018-Feb-20 12:30N 36°30' E 014°11'815.7
2018-Feb-20 12:00N 36°33' E 014°02'815.7
2018-Feb-20 11:30N 36°35' E 013°53'815.8
2018-Feb-20 10:58N 36°37' E 013°43'915.6
2018-Feb-20 10:23N 36°40' E 013°32'  
2018-Feb-11 17:33N 35°57' W 005°35'112.6
2018-Feb-11 17:30N 35°58' W 005°34'612.0
2018-Feb-11 17:00N 35°59' W 005°27'611.5
2018-Feb-11 16:30N 36°01' W 005°20'510.6
2018-Feb-11 16:00N 36°02' W 005°14'  
Track history (hours):
 
Tides and Currents Weather Stations Pressure Air Temp Water Temp Dewpoint Dewpoint Depression Visibility Wind Speed Wind Dir Waves Ship Positions

Clipper Venus

Last reported at 2018-Feb-20 13:30 UTC. Time now 2018-Feb-20 13:54 UTC.
Position N 36°25' E 014°30'.

Length 199 m; draft 7.2 m.

Type: Ship (hazmat cat B). MMSI: 257665000.

Date/timePositionNaut miles runAvg speedWind from/ knotsBaromVisibWave heightAir tempDewpointWater temp
2018-Feb-20 13:30N 36°25' E 014°30'815.8
2018-Feb-20 13:00N 36°28' E 014°21'815.8
2018-Feb-20 12:30N 36°30' E 014°11'815.7
2018-Feb-20 12:00N 36°33' E 014°02'815.7
2018-Feb-20 11:30N 36°35' E 013°53'815.8
2018-Feb-20 10:58N 36°37' E 013°43'915.6
2018-Feb-20 10:23N 36°40' E 013°32'  
2018-Feb-11 17:33N 35°57' W 005°35'112.6
2018-Feb-11 17:30N 35°58' W 005°34'612.0
2018-Feb-11 17:00N 35°59' W 005°27'611.5
2018-Feb-11 16:30N 36°01' W 005°20'510.6
2018-Feb-11 16:00N 36°02' W 005°14'  

Dump ship's entire track history